EPBY

Bydgoszcz Ignacy Jan Paderewski Airport

Bydgoszcz, Poland
METAR EPBY 201230Z 30009KT 9999 FEW034TCU 12/04 Q1024
Observed Flight Rules
Oct-20 @ 12:30 UTC (22 minutes ago) Visual Flight Rules
Wind Visibility Clouds
300° at 9 knots 10,000+ meters
  • Few at 3,400' AGL
Temperatures Readings
Current 12°C / 54°F
Dewpoint 4°C / 39°F
Humidity 58%
Altimeter 30.24" Hg
Pressure 1024 hPa
Elevation 71
METAR EPBY 201230Z 30009KT 9999 FEW034TCU 12/04 Q1024
Observed Flight Rules
Oct-20 @ 12:30 UTC
(22 minutes ago)
VFR
Wind Visibility
300° at 9 knots 10,000+ meters
Clouds
  • Few at 3,400' AGL
Temperature Dewpoint
12°C / 54°F 4°C / 39°F
Humidity Altimeter Pressure
58% 30.24" Hg 1024 hPa